Time;durP1;ratioP1;P1;durP2;ratioP2;P2;SDS_P1;SDS_P2;PMS_P1;PMS_P2;Temp;Humidity;BMP_temperature;BMP_pressure;BME280_temperature;BME280_humidity;BME280_pressure;Samples;Min_cycle;Max_cycle;Signal;HPM_P1;HPM_P2
2021/07/09 00:01:57;;;;;;;11.4;10.3;;;;;;;20.2;58.6;101940;;;;
2021/07/09 00:07:57;;;;;;;14.3;12.9;;;;;;;20.0;59.0;101950;;;;
2021/07/09 00:09:57;;;;;;;14.3;12.9;;;;;;;20.2;58.5;101940;;;;
2021/07/09 00:23:57;;;;;;;14.3;12.9;;;;;;;20.1;57.9;101950;;;;
2021/07/09 00:25:57;;;;;;;14.1;12.8;;;;;;;20.0;58.7;101940;;;;
2021/07/09 00:27:57;;;;;;;14.1;12.8;;;;;;;19.9;59.3;101940;;;;
2021/07/09 00:35:57;;;;;;;14.1;12.8;;;;;;;19.8;59.0;101940;;;;
2021/07/09 00:37:57;;;;;;;14.1;12.8;;;;;;;20.0;58.0;101940;;;;
2021/07/09 00:39:57;;;;;;;14.1;12.8;;;;;;;20.1;57.8;101940;;;;
2021/07/09 00:41:57;;;;;;;14.1;12.8;;;;;;;19.8;59.1;101940;;;;
2021/07/09 00:43:57;;;;;;;14.1;12.8;;;;;;;19.9;57.9;101940;;;;
2021/07/09 00:49:57;;;;;;;14.6;13.1;;;;;;;19.8;58.4;101930;;;;
2021/07/09 00:51:57;;;;;;;14.6;13.1;;;;;;;19.9;57.6;101940;;;;
2021/07/09 00:55:57;;;;;;;14.6;13.1;;;;;;;19.8;58.2;101950;;;;
2021/07/09 01:07:57;;;;;;;14.4;13.1;;;;;;;19.7;57.8;101960;;;;
2021/07/09 01:09:57;;;;;;;14.4;13.1;;;;;;;19.8;57.2;101960;;;;
2021/07/09 01:11:57;;;;;;;14.4;13.1;;;;;;;19.7;57.5;101960;;;;
2021/07/09 01:15:57;;;;;;;14.4;13.1;;;;;;;19.6;57.7;101960;;;;
2021/07/09 01:21:57;;;;;;;14.4;13.1;;;;;;;19.5;58.3;101960;;;;
2021/07/09 01:23:57;;;;;;;14.4;13.1;;;;;;;19.4;58.3;101950;;;;
2021/07/09 01:25:57;;;;;;;15.4;13.9;;;;;;;19.6;57.3;101950;;;;
2021/07/09 01:27:57;;;;;;;15.4;13.9;;;;;;;19.5;57.5;101950;;;;
2021/07/09 01:31:57;;;;;;;15.4;13.9;;;;;;;19.4;57.7;101950;;;;
2021/07/09 01:33:57;;;;;;;15.4;13.9;;;;;;;19.3;57.7;101950;;;;
2021/07/09 01:39:57;;;;;;;15.4;13.9;;;;;;;19.2;58.5;101950;;;;
2021/07/09 01:43:57;;;;;;;15.4;13.9;;;;;;;19.1;58.2;101950;;;;
2021/07/09 01:45:58;;;;;;;14.7;13.3;;;;;;;19.2;57.5;101950;;;;
2021/07/09 01:49:57;;;;;;;14.7;13.3;;;;;;;19.1;58.2;101950;;;;
2021/07/09 01:51:57;;;;;;;14.7;13.3;;;;;;;19.0;58.4;101950;;;;
2021/07/09 01:57:57;;;;;;;14.7;13.3;;;;;;;18.9;58.6;101940;;;;
2021/07/09 01:59:57;;;;;;;14.7;13.3;;;;;;;19.0;57.9;101940;;;;
2021/07/09 02:05:57;;;;;;;14.1;12.7;;;;;;;18.9;57.9;101940;;;;
2021/07/09 02:11:57;;;;;;;14.1;12.7;;;;;;;18.8;58.2;101940;;;;
2021/07/09 02:13:57;;;;;;;14.1;12.7;;;;;;;18.7;59.0;101940;;;;
2021/07/09 02:17:57;;;;;;;14.1;12.7;;;;;;;18.6;58.8;101940;;;;
2021/07/09 02:19:57;;;;;;;14.1;12.7;;;;;;;18.7;58.0;101940;;;;
2021/07/09 02:21:57;;;;;;;14.1;12.7;;;;;;;18.6;58.3;101940;;;;
2021/07/09 02:25:57;;;;;;;13.4;12.1;;;;;;;18.5;59.2;101940;;;;
2021/07/09 02:27:57;;;;;;;13.4;12.1;;;;;;;18.3;59.8;101940;;;;
2021/07/09 02:29:57;;;;;;;13.4;12.1;;;;;;;18.4;59.2;101940;;;;
2021/07/09 02:31:57;;;;;;;13.4;12.1;;;;;;;18.3;59.7;101940;;;;
2021/07/09 02:33:57;;;;;;;13.4;12.1;;;;;;;18.4;59.2;101940;;;;
2021/07/09 02:35:57;;;;;;;13.4;12.1;;;;;;;18.3;59.7;101940;;;;
2021/07/09 02:39:57;;;;;;;13.4;12.1;;;;;;;18.2;59.5;101940;;;;
2021/07/09 02:41:57;;;;;;;13.4;12.1;;;;;;;18.3;59.0;101950;;;;
2021/07/09 02:43:57;;;;;;;13.4;12.1;;;;;;;18.4;59.1;101940;;;;
2021/07/09 02:45:57;;;;;;;14.7;13.3;;;;;;;18.0;60.7;101940;;;;
2021/07/09 02:49:57;;;;;;;14.7;13.3;;;;;;;18.1;59.4;101940;;;;
2021/07/09 02:55:57;;;;;;;14.7;13.3;;;;;;;18.0;59.3;101930;;;;
2021/07/09 02:57:57;;;;;;;14.7;13.3;;;;;;;18.1;59.4;101940;;;;
2021/07/09 03:05:57;;;;;;;14.4;12.9;;;;;;;18.0;59.4;101940;;;;
2021/07/09 03:13:57;;;;;;;14.4;12.9;;;;;;;17.9;60.4;101940;;;;
2021/07/09 03:15:57;;;;;;;14.4;12.9;;;;;;;18.0;59.7;101940;;;;
2021/07/09 03:17:57;;;;;;;14.4;12.9;;;;;;;17.9;59.8;101950;;;;
2021/07/09 03:19:57;;;;;;;14.4;12.9;;;;;;;17.8;61.0;101940;;;;
2021/07/09 03:21:57;;;;;;;14.4;12.9;;;;;;;17.9;60.6;101940;;;;
2021/07/09 03:23:57;;;;;;;14.4;12.9;;;;;;;17.8;61.1;101930;;;;
2021/07/09 03:26:00;;;;;;;16.2;14.6;;;;;;;17.9;60.7;101940;;;;
2021/07/09 03:27:57;;;;;;;16.2;14.6;;;;;;;17.8;61.2;101940;;;;
2021/07/09 03:29:59;;;;;;;16.2;14.6;;;;;;;17.7;60.5;101940;;;;
2021/07/09 03:35:57;;;;;;;16.2;14.6;;;;;;;17.8;60.3;101940;;;;
2021/07/09 03:37:57;;;;;;;16.2;14.6;;;;;;;17.7;61.3;101950;;;;
2021/07/09 03:39:57;;;;;;;16.2;14.6;;;;;;;17.6;61.4;101940;;;;
2021/07/09 03:43:57;;;;;;;16.2;14.6;;;;;;;17.5;62.2;101940;;;;
2021/07/09 03:49:57;;;;;;;17.2;15.4;;;;;;;17.6;61.2;101940;;;;
2021/07/09 03:53:57;;;;;;;17.2;15.4;;;;;;;17.5;61.6;101940;;;;
2021/07/09 03:57:57;;;;;;;17.2;15.4;;;;;;;17.4;61.8;101940;;;;
2021/07/09 03:59:57;;;;;;;17.2;15.4;;;;;;;17.5;61.6;101940;;;;
2021/07/09 04:03:57;;;;;;;17.2;15.4;;;;;;;17.4;62.6;101940;;;;
2021/07/09 04:09:57;;;;;;;17.3;15.3;;;;;;;17.3;61.7;101950;;;;
2021/07/09 04:13:57;;;;;;;17.3;15.3;;;;;;;17.4;61.7;101950;;;;
2021/07/09 04:19:57;;;;;;;17.3;15.3;;;;;;;17.3;62.2;101950;;;;
2021/07/09 04:23:57;;;;;;;17.3;15.3;;;;;;;17.4;61.1;101950;;;;
2021/07/09 04:25:57;;;;;;;17.4;15.3;;;;;;;17.2;62.8;101950;;;;
2021/07/09 04:27:57;;;;;;;17.4;15.3;;;;;;;17.3;61.7;101950;;;;
2021/07/09 04:29:57;;;;;;;17.4;15.3;;;;;;;17.2;62.3;101950;;;;
2021/07/09 04:31:57;;;;;;;17.4;15.3;;;;;;;17.3;61.8;101950;;;;
2021/07/09 04:33:57;;;;;;;17.4;15.3;;;;;;;17.4;61.6;101950;;;;
2021/07/09 04:35:57;;;;;;;17.4;15.3;;;;;;;17.3;61.9;101960;;;;
2021/07/09 04:37:57;;;;;;;17.4;15.3;;;;;;;17.4;62.1;101960;;;;
2021/07/09 04:39:57;;;;;;;17.4;15.3;;;;;;;17.2;62.4;101960;;;;
2021/07/09 04:41:57;;;;;;;17.4;15.3;;;;;;;17.3;61.3;101960;;;;
2021/07/09 04:43:57;;;;;;;18.3;15.6;;;;;;;17.5;60.7;101960;;;;
2021/07/09 04:45:57;;;;;;;18.3;15.6;;;;;;;17.4;61.9;101960;;;;
2021/07/09 04:47:57;;;;;;;18.3;15.6;;;;;;;17.3;62.0;101960;;;;
2021/07/09 04:49:57;;;;;;;18.3;15.6;;;;;;;17.4;61.8;101960;;;;
2021/07/09 04:57:57;;;;;;;18.3;15.6;;;;;;;17.5;60.9;101950;;;;
2021/07/09 04:59:57;;;;;;;18.3;15.6;;;;;;;17.4;62.6;101960;;;;
2021/07/09 05:01:57;;;;;;;18.3;15.6;;;;;;;17.5;61.2;101960;;;;
2021/07/09 05:03:58;;;;;;;19.8;16.8;;;;;;;17.6;60.8;101950;;;;
2021/07/09 05:05:57;;;;;;;19.8;16.8;;;;;;;17.5;61.7;101960;;;;
2021/07/09 05:15:57;;;;;;;19.8;16.8;;;;;;;17.6;62.4;101950;;;;
2021/07/09 05:21:57;;;;;;;19.8;16.8;;;;;;;17.7;62.3;101950;;;;
2021/07/09 05:25:57;;;;;;;17.9;16.1;;;;;;;17.6;62.3;101960;;;;
2021/07/09 05:29:57;;;;;;;17.9;16.1;;;;;;;17.8;62.2;101960;;;;
2021/07/09 05:35:57;;;;;;;17.9;16.1;;;;;;;17.9;61.6;101950;;;;
2021/07/09 05:37:57;;;;;;;17.9;16.1;;;;;;;17.8;61.6;101950;;;;
2021/07/09 05:39:57;;;;;;;17.9;16.1;;;;;;;17.9;61.4;101950;;;;
2021/07/09 05:42:00;;;;;;;17.9;16.1;;;;;;;18.1;60.7;101960;;;;
2021/07/09 05:45:57;;;;;;;18.6;15.8;;;;;;;18.0;61.5;101960;;;;
2021/07/09 05:49:57;;;;;;;18.6;15.8;;;;;;;18.1;61.1;101960;;;;
2021/07/09 05:51:57;;;;;;;18.6;15.8;;;;;;;18.2;61.4;101960;;;;
2021/07/09 05:59:57;;;;;;;18.6;15.8;;;;;;;18.4;60.6;101960;;;;
2021/07/09 06:01:57;;;;;;;18.6;15.8;;;;;;;18.5;60.4;101960;;;;
2021/07/09 06:04:01;;;;;;;18.5;16.0;;;;;;;18.6;60.2;101970;;;;
2021/07/09 06:09:57;;;;;;;18.5;16.0;;;;;;;18.7;60.2;101960;;;;
2021/07/09 06:11:57;;;;;;;18.5;16.0;;;;;;;18.8;59.9;101960;;;;
2021/07/09 06:13:57;;;;;;;18.5;16.0;;;;;;;18.9;59.6;101960;;;;
2021/07/09 06:15:57;;;;;;;18.5;16.0;;;;;;;18.8;60.2;101960;;;;
2021/07/09 06:25:57;;;;;;;17.3;15.5;;;;;;;19.0;60.5;101960;;;;
2021/07/09 06:29:57;;;;;;;17.3;15.5;;;;;;;19.1;59.5;101960;;;;
2021/07/09 06:35:57;;;;;;;17.3;15.5;;;;;;;19.2;59.3;101960;;;;
2021/07/09 06:37:58;;;;;;;17.3;15.5;;;;;;;19.3;59.4;101960;;;;
2021/07/09 06:41:57;;;;;;;17.3;15.5;;;;;;;19.4;59.1;101970;;;;
2021/07/09 06:43:58;;;;;;;18.2;16.2;;;;;;;19.5;59.2;101970;;;;
2021/07/09 06:51:57;;;;;;;18.2;16.2;;;;;;;19.4;58.4;101970;;;;
2021/07/09 06:55:57;;;;;;;18.2;16.2;;;;;;;19.5;58.0;101980;;;;
2021/07/09 06:57:57;;;;;;;18.2;16.2;;;;;;;19.6;58.0;101980;;;;
2021/07/09 07:01:58;;;;;;;18.2;16.2;;;;;;;19.7;57.8;101980;;;;
2021/07/09 07:07:58;;;;;;;13.7;12.1;;;;;;;19.6;57.8;101980;;;;
2021/07/09 07:09:57;;;;;;;13.7;12.1;;;;;;;19.7;57.1;101980;;;;
2021/07/09 07:12:01;;;;;;;13.7;12.1;;;;;;;19.6;56.9;101980;;;;
2021/07/09 07:13:57;;;;;;;13.7;12.1;;;;;;;19.7;57.2;101980;;;;
2021/07/09 07:15:58;;;;;;;13.7;12.1;;;;;;;19.8;57.6;101980;;;;
2021/07/09 07:19:57;;;;;;;13.7;12.1;;;;;;;20.0;57.8;101970;;;;
2021/07/09 07:24:02;;;;;;;12.7;11.5;;;;;;;19.9;57.1;101980;;;;
2021/07/09 07:25:57;;;;;;;12.7;11.5;;;;;;;20.0;56.6;101980;;;;
2021/07/09 07:29:58;;;;;;;12.7;11.5;;;;;;;20.1;56.9;101980;;;;
2021/07/09 07:31:57;;;;;;;12.7;11.5;;;;;;;20.3;57.0;101980;;;;
2021/07/09 07:43:57;;;;;;;11.5;10.3;;;;;;;20.4;56.7;101980;;;;
2021/07/09 07:47:57;;;;;;;11.5;10.3;;;;;;;20.6;56.4;101970;;;;
2021/07/09 07:49:57;;;;;;;11.5;10.3;;;;;;;20.7;56.4;101970;;;;
2021/07/09 07:51:57;;;;;;;11.5;10.3;;;;;;;20.8;56.6;101970;;;;
2021/07/09 07:53:57;;;;;;;11.5;10.3;;;;;;;20.9;56.1;101970;;;;
2021/07/09 07:55:57;;;;;;;11.5;10.3;;;;;;;20.8;55.3;101970;;;;
2021/07/09 07:59:57;;;;;;;11.5;10.3;;;;;;;20.9;55.6;101980;;;;
2021/07/09 08:01:57;;;;;;;11.5;10.3;;;;;;;21.0;55.4;101980;;;;
2021/07/09 08:03:57;;;;;;;11.1;9.7;;;;;;;21.2;55.5;101970;;;;
2021/07/09 08:07:57;;;;;;;11.1;9.7;;;;;;;21.4;54.2;101980;;;;
2021/07/09 08:11:57;;;;;;;11.1;9.7;;;;;;;21.5;54.1;101980;;;;
2021/07/09 08:13:57;;;;;;;11.1;9.7;;;;;;;21.3;53.7;101980;;;;
2021/07/09 08:15:58;;;;;;;11.1;9.7;;;;;;;21.1;53.4;101990;;;;
2021/07/09 08:17:57;;;;;;;11.1;9.7;;;;;;;21.2;54.3;101990;;;;
2021/07/09 08:19:57;;;;;;;11.1;9.7;;;;;;;21.4;53.9;101980;;;;
2021/07/09 08:21:57;;;;;;;11.1;9.7;;;;;;;21.5;54.1;101980;;;;
2021/07/09 08:23:57;;;;;;;7.1;6.4;;;;;;;21.4;53.4;101980;;;;
2021/07/09 08:25:57;;;;;;;7.1;6.4;;;;;;;21.5;52.7;101980;;;;
2021/07/09 08:27:57;;;;;;;7.1;6.4;;;;;;;21.7;52.8;101980;;;;
2021/07/09 08:29:57;;;;;;;7.1;6.4;;;;;;;21.8;52.6;101970;;;;
2021/07/09 08:31:57;;;;;;;7.1;6.4;;;;;;;21.7;53.7;101970;;;;
2021/07/09 08:33:57;;;;;;;7.1;6.4;;;;;;;21.8;53.8;101980;;;;
2021/07/09 08:37:57;;;;;;;7.1;6.4;;;;;;;22.0;53.9;101970;;;;
2021/07/09 08:39:57;;;;;;;7.1;6.4;;;;;;;21.9;54.3;101970;;;;
2021/07/09 08:41:57;;;;;;;7.1;6.4;;;;;;;22.0;53.7;101970;;;;
2021/07/09 08:43:57;;;;;;;8.9;8.1;;;;;;;22.2;53.9;101970;;;;
2021/07/09 08:45:57;;;;;;;8.9;8.1;;;;;;;22.4;53.7;101970;;;;
2021/07/09 08:47:57;;;;;;;8.9;8.1;;;;;;;22.2;53.7;101970;;;;
2021/07/09 08:49:58;;;;;;;8.9;8.1;;;;;;;22.1;53.2;101960;;;;
2021/07/09 08:51:57;;;;;;;8.9;8.1;;;;;;;22.2;53.5;101960;;;;
2021/07/09 08:55:57;;;;;;;8.9;8.1;;;;;;;22.3;53.4;101960;;;;
2021/07/09 08:58:07;;;;;;;8.9;8.1;;;;;;;22.2;53.9;101960;;;;
2021/07/09 08:59:57;;;;;;;8.9;8.1;;;;;;;22.4;53.6;101970;;;;
2021/07/09 09:01:58;;;;;;;8.9;8.1;;;;;;;22.0;53.7;101960;;;;
2021/07/09 09:03:57;;;;;;;10.9;9.9;;;;;;;22.2;53.7;101960;;;;
2021/07/09 09:06:00;;;;;;;10.9;9.9;;;;;;;22.5;54.0;101960;;;;
2021/07/09 09:07:58;;;;;;;10.9;9.9;;;;;;;22.6;53.8;101960;;;;
2021/07/09 09:11:57;;;;;;;10.9;9.9;;;;;;;22.8;53.6;101960;;;;
2021/07/09 09:14:00;;;;;;;10.9;9.9;;;;;;;22.6;53.0;101960;;;;
2021/07/09 09:16:05;;;;;;;10.9;9.9;;;;;;;22.5;53.6;101950;;;;
2021/07/09 09:17:57;;;;;;;10.9;9.9;;;;;;;22.7;53.1;101960;;;;
2021/07/09 09:19:57;;;;;;;10.9;9.9;;;;;;;22.9;52.7;101960;;;;
2021/07/09 09:21:57;;;;;;;10.9;9.9;;;;;;;23.0;53.6;101950;;;;
2021/07/09 09:24:07;;;;;;;12.5;10.9;;;;;;;23.2;52.4;101950;;;;
2021/07/09 09:25:57;;;;;;;12.5;10.9;;;;;;;23.0;52.4;101950;;;;
2021/07/09 09:27:58;;;;;;;12.5;10.9;;;;;;;23.1;52.5;101950;;;;
2021/07/09 09:31:58;;;;;;;12.5;10.9;;;;;;;23.3;51.9;101950;;;;
2021/07/09 09:33:57;;;;;;;12.5;10.9;;;;;;;23.1;52.4;101950;;;;
2021/07/09 09:35:57;;;;;;;12.5;10.9;;;;;;;23.2;51.1;101950;;;;
2021/07/09 09:37:57;;;;;;;12.5;10.9;;;;;;;23.3;52.5;101950;;;;
2021/07/09 09:39:57;;;;;;;12.5;10.9;;;;;;;23.4;51.9;101950;;;;
2021/07/09 09:42:07;;;;;;;12.5;10.9;;;;;;;23.7;51.9;101940;;;;
2021/07/09 09:43:57;;;;;;;12.5;11.1;;;;;;;23.8;51.7;101940;;;;
2021/07/09 09:45:57;;;;;;;12.5;11.1;;;;;;;23.5;52.1;101940;;;;
2021/07/09 09:47:57;;;;;;;12.5;11.1;;;;;;;23.4;51.5;101940;;;;
2021/07/09 09:49:57;;;;;;;12.5;11.1;;;;;;;23.6;51.6;101940;;;;
2021/07/09 09:54:07;;;;;;;12.5;11.1;;;;;;;23.5;51.8;101940;;;;
2021/07/09 09:57:57;;;;;;;12.5;11.1;;;;;;;23.4;51.4;101930;;;;
2021/07/09 09:59:57;;;;;;;12.5;11.1;;;;;;;23.7;50.5;101930;;;;
2021/07/09 10:01:58;;;;;;;12.5;11.1;;;;;;;23.9;52.0;101930;;;;
2021/07/09 10:03:57;;;;;;;13.3;11.9;;;;;;;24.1;50.4;101930;;;;
2021/07/09 10:09:57;;;;;;;13.3;11.9;;;;;;;24.0;49.6;101930;;;;
2021/07/09 10:11:58;;;;;;;13.3;11.9;;;;;;;24.1;50.5;101930;;;;
2021/07/09 10:13:57;;;;;;;13.3;11.9;;;;;;;24.2;50.0;101930;;;;
2021/07/09 10:15:58;;;;;;;13.3;11.9;;;;;;;24.3;49.6;101920;;;;
2021/07/09 10:17:58;;;;;;;13.3;11.9;;;;;;;24.2;50.8;101920;;;;
2021/07/09 10:20:07;;;;;;;13.3;11.9;;;;;;;24.1;50.7;101930;;;;
2021/07/09 10:21:57;;;;;;;13.3;11.9;;;;;;;23.9;50.3;101930;;;;
2021/07/09 10:23:57;;;;;;;14.7;12.8;;;;;;;24.0;49.7;101930;;;;
2021/07/09 10:25:57;;;;;;;14.7;12.8;;;;;;;24.1;50.5;101930;;;;
2021/07/09 10:30:00;;;;;;;14.7;12.8;;;;;;;24.0;50.0;101920;;;;
2021/07/09 10:33:57;;;;;;;14.7;12.8;;;;;;;23.9;50.9;101920;;;;
2021/07/09 10:35:57;;;;;;;14.7;12.8;;;;;;;23.8;50.5;101930;;;;
2021/07/09 10:37:57;;;;;;;14.7;12.8;;;;;;;23.9;50.8;101920;;;;
2021/07/09 10:40:00;;;;;;;14.7;12.8;;;;;;;24.0;50.2;101930;;;;
2021/07/09 10:45:57;;;;;;;18.7;16.9;;;;;;;23.5;51.6;101930;;;;
2021/07/09 10:48:01;;;;;;;18.7;16.9;;;;;;;23.8;52.0;101920;;;;
2021/07/09 10:49:57;;;;;;;18.7;16.9;;;;;;;23.9;51.3;101920;;;;
2021/07/09 10:51:58;;;;;;;18.7;16.9;;;;;;;24.1;51.4;101920;;;;
2021/07/09 10:55:57;;;;;;;18.7;16.9;;;;;;;24.2;50.4;101910;;;;
2021/07/09 10:57:57;;;;;;;18.7;16.9;;;;;;;24.1;50.9;101910;;;;
2021/07/09 10:59:57;;;;;;;18.7;16.9;;;;;;;24.2;51.1;101910;;;;
2021/07/09 11:01:57;;;;;;;18.7;16.9;;;;;;;23.9;50.0;101910;;;;
2021/07/09 11:05:57;;;;;;;23.1;21.1;;;;;;;24.1;49.7;101910;;;;
2021/07/09 11:09:57;;;;;;;23.1;21.1;;;;;;;24.2;49.0;101910;;;;
2021/07/09 11:11:57;;;;;;;23.1;21.1;;;;;;;24.3;49.9;101900;;;;
2021/07/09 11:13:57;;;;;;;23.1;21.1;;;;;;;24.5;49.4;101900;;;;
2021/07/09 11:15:57;;;;;;;23.1;21.1;;;;;;;24.4;50.1;101900;;;;
2021/07/09 11:17:57;;;;;;;23.1;21.1;;;;;;;24.7;47.7;101900;;;;
2021/07/09 11:19:57;;;;;;;23.1;21.1;;;;;;;24.5;46.9;101900;;;;
2021/07/09 11:21:57;;;;;;;23.1;21.1;;;;;;;24.8;48.3;101900;;;;
2021/07/09 11:23:57;;;;;;;14.9;13.5;;;;;;;24.9;46.9;101900;;;;
2021/07/09 11:27:57;;;;;;;14.9;13.5;;;;;;;24.7;48.9;101900;;;;
2021/07/09 11:29:59;;;;;;;14.9;13.5;;;;;;;24.8;47.9;101900;;;;
2021/07/09 11:35:57;;;;;;;14.9;13.5;;;;;;;24.7;48.4;101900;;;;
2021/07/09 11:39:57;;;;;;;14.9;13.5;;;;;;;25.0;49.9;101900;;;;
2021/07/09 11:41:57;;;;;;;14.9;13.5;;;;;;;24.8;48.6;101900;;;;
2021/07/09 11:43:57;;;;;;;17.9;16.2;;;;;;;25.1;48.3;101900;;;;
2021/07/09 11:45:58;;;;;;;17.9;16.2;;;;;;;25.3;46.8;101890;;;;
2021/07/09 11:47:57;;;;;;;17.9;16.2;;;;;;;25.0;46.3;101890;;;;
2021/07/09 11:49:58;;;;;;;17.9;16.2;;;;;;;25.1;44.9;101900;;;;
2021/07/09 11:51:57;;;;;;;17.9;16.2;;;;;;;25.3;45.5;101890;;;;
2021/07/09 11:55:57;;;;;;;17.9;16.2;;;;;;;24.9;47.6;101890;;;;
2021/07/09 11:57:57;;;;;;;17.9;16.2;;;;;;;25.3;47.3;101890;;;;
2021/07/09 12:01:57;;;;;;;17.9;16.2;;;;;;;25.2;48.0;101900;;;;
2021/07/09 12:03:57;;;;;;;20.3;18.4;;;;;;;25.1;47.6;101900;;;;
2021/07/09 12:07:59;;;;;;;20.3;18.4;;;;;;;25.0;47.5;101900;;;;
2021/07/09 12:09:57;;;;;;;20.3;18.4;;;;;;;25.1;44.5;101890;;;;
2021/07/09 12:11:57;;;;;;;20.3;18.4;;;;;;;25.0;47.3;101890;;;;
2021/07/09 12:13:57;;;;;;;20.3;18.4;;;;;;;25.1;47.0;101890;;;;
2021/07/09 12:15:57;;;;;;;20.3;18.4;;;;;;;25.2;47.3;101900;;;;
2021/07/09 12:21:57;;;;;;;20.3;18.4;;;;;;;25.3;46.9;101890;;;;
2021/07/09 12:23:57;;;;;;;18.3;16.4;;;;;;;25.4;46.7;101890;;;;
2021/07/09 12:25:57;;;;;;;18.3;16.4;;;;;;;25.3;48.3;101890;;;;
2021/07/09 12:27:57;;;;;;;18.3;16.4;;;;;;;25.4;48.4;101890;;;;
2021/07/09 12:29:57;;;;;;;18.3;16.4;;;;;;;25.6;47.0;101890;;;;
2021/07/09 12:31:58;;;;;;;18.3;16.4;;;;;;;25.7;47.2;101890;;;;
2021/07/09 12:33:57;;;;;;;18.3;16.4;;;;;;;25.4;45.3;101890;;;;
2021/07/09 12:35:59;;;;;;;18.3;16.4;;;;;;;25.5;47.9;101890;;;;
2021/07/09 12:37:57;;;;;;;18.3;16.4;;;;;;;25.4;46.5;101890;;;;
2021/07/09 12:40:00;;;;;;;18.3;16.4;;;;;;;25.3;46.2;101890;;;;
2021/07/09 12:41:57;;;;;;;18.3;16.4;;;;;;;25.5;48.0;101890;;;;
2021/07/09 12:49:57;;;;;;;15.6;14.1;;;;;;;25.6;47.1;101880;;;;
2021/07/09 12:52:01;;;;;;;15.6;14.1;;;;;;;25.5;45.9;101870;;;;
2021/07/09 12:53:58;;;;;;;15.6;14.1;;;;;;;25.4;46.1;101880;;;;
2021/07/09 12:55:57;;;;;;;15.6;14.1;;;;;;;25.2;46.7;101880;;;;
2021/07/09 12:58:07;;;;;;;15.6;14.1;;;;;;;25.4;44.5;101880;;;;
2021/07/09 12:59:58;;;;;;;15.6;14.1;;;;;;;25.5;45.0;101870;;;;
2021/07/09 13:01:57;;;;;;;15.6;14.1;;;;;;;25.6;45.1;101870;;;;
2021/07/09 13:03:57;;;;;;;13.0;10.9;;;;;;;25.7;45.3;101870;;;;
2021/07/09 13:05:57;;;;;;;13.0;10.9;;;;;;;25.9;45.6;101870;;;;
2021/07/09 13:07:57;;;;;;;13.0;10.9;;;;;;;25.7;44.5;101860;;;;
2021/07/09 13:09:57;;;;;;;13.0;10.9;;;;;;;25.5;43.7;101870;;;;
2021/07/09 13:11:57;;;;;;;13.0;10.9;;;;;;;25.9;45.0;101870;;;;
2021/07/09 13:13:57;;;;;;;13.0;10.9;;;;;;;26.1;43.3;101870;;;;
2021/07/09 13:15:58;;;;;;;13.0;10.9;;;;;;;25.6;44.2;101870;;;;
2021/07/09 13:17:57;;;;;;;13.0;10.9;;;;;;;25.7;44.5;101870;;;;
2021/07/09 13:19:57;;;;;;;13.0;10.9;;;;;;;25.9;43.0;101860;;;;
2021/07/09 13:21:57;;;;;;;13.0;10.9;;;;;;;25.7;42.5;101870;;;;
2021/07/09 13:23:57;;;;;;;8.0;7.1;;;;;;;25.4;42.8;101860;;;;
2021/07/09 13:25:57;;;;;;;8.0;7.1;;;;;;;25.7;42.8;101860;;;;
2021/07/09 13:27:57;;;;;;;8.0;7.1;;;;;;;25.5;42.6;101860;;;;
2021/07/09 13:29:58;;;;;;;8.0;7.1;;;;;;;25.6;42.4;101860;;;;
2021/07/09 13:31:57;;;;;;;8.0;7.1;;;;;;;25.4;41.8;101860;;;;
2021/07/09 13:33:57;;;;;;;8.0;7.1;;;;;;;25.1;42.3;101860;;;;
2021/07/09 13:35:57;;;;;;;8.0;7.1;;;;;;;25.3;43.3;101850;;;;
2021/07/09 13:37:57;;;;;;;8.0;7.1;;;;;;;25.6;42.2;101850;;;;
2021/07/09 13:39:57;;;;;;;8.0;7.1;;;;;;;25.7;42.6;101850;;;;
2021/07/09 13:41:58;;;;;;;8.0;7.1;;;;;;;25.9;42.8;101850;;;;
2021/07/09 13:43:57;;;;;;;6.6;6.0;;;;;;;25.8;42.0;101850;;;;
2021/07/09 13:45:57;;;;;;;6.6;6.0;;;;;;;25.5;42.2;101850;;;;
2021/07/09 13:48:07;;;;;;;6.6;6.0;;;;;;;25.8;41.8;101850;;;;
2021/07/09 13:51:59;;;;;;;6.6;6.0;;;;;;;26.0;40.9;101840;;;;
2021/07/09 13:55:57;;;;;;;6.6;6.0;;;;;;;26.1;39.5;101850;;;;
2021/07/09 13:57:57;;;;;;;6.6;6.0;;;;;;;26.3;39.7;101850;;;;
2021/07/09 13:59:57;;;;;;;6.6;6.0;;;;;;;26.4;41.2;101850;;;;
2021/07/09 14:02:03;;;;;;;6.6;6.0;;;;;;;26.7;40.6;101850;;;;
2021/07/09 14:07:57;;;;;;;6.1;5.5;;;;;;;26.8;40.3;101850;;;;
2021/07/09 14:09:57;;;;;;;6.1;5.5;;;;;;;26.7;41.3;101850;;;;
2021/07/09 14:11:59;;;;;;;6.1;5.5;;;;;;;26.5;42.3;101850;;;;
2021/07/09 14:15:57;;;;;;;6.1;5.5;;;;;;;26.2;41.4;101840;;;;
2021/07/09 14:17:58;;;;;;;6.1;5.5;;;;;;;26.6;41.3;101840;;;;
2021/07/09 14:19:57;;;;;;;6.1;5.5;;;;;;;26.8;41.9;101840;;;;
2021/07/09 14:21:57;;;;;;;6.1;5.5;;;;;;;26.5;42.0;101840;;;;
2021/07/09 14:25:57;;;;;;;13.1;11.9;;;;;;;26.4;42.9;101840;;;;
2021/07/09 14:29:57;;;;;;;13.1;11.9;;;;;;;25.8;43.0;101830;;;;
2021/07/09 14:31:57;;;;;;;13.1;11.9;;;;;;;25.9;43.3;101820;;;;
2021/07/09 14:33:58;;;;;;;13.1;11.9;;;;;;;25.8;42.9;101830;;;;
2021/07/09 14:35:57;;;;;;;13.1;11.9;;;;;;;25.7;43.5;101830;;;;
2021/07/09 14:37:57;;;;;;;13.1;11.9;;;;;;;25.9;43.3;101830;;;;
2021/07/09 14:39:57;;;;;;;13.1;11.9;;;;;;;26.2;43.3;101820;;;;
2021/07/09 14:41:57;;;;;;;13.1;11.9;;;;;;;26.3;42.2;101830;;;;
2021/07/09 14:43:57;;;;;;;11.5;10.4;;;;;;;26.5;42.0;101820;;;;
2021/07/09 14:45:57;;;;;;;11.5;10.4;;;;;;;26.4;42.9;101820;;;;
2021/07/09 14:47:59;;;;;;;11.5;10.4;;;;;;;26.6;42.0;101820;;;;
2021/07/09 14:49:57;;;;;;;11.5;10.4;;;;;;;26.8;42.5;101820;;;;
2021/07/09 14:51:57;;;;;;;11.5;10.4;;;;;;;27.2;42.7;101810;;;;
2021/07/09 14:54:07;;;;;;;11.5;10.4;;;;;;;27.5;41.1;101820;;;;
2021/07/09 14:57:57;;;;;;;11.5;10.4;;;;;;;27.7;39.9;101810;;;;
2021/07/09 14:59:57;;;;;;;11.5;10.4;;;;;;;27.8;40.1;101810;;;;
2021/07/09 15:01:58;;;;;;;11.5;10.4;;;;;;;27.6;40.3;101810;;;;
2021/07/09 15:03:57;;;;;;;11.3;10.3;;;;;;;27.5;40.8;101810;;;;
2021/07/09 15:05:57;;;;;;;11.3;10.3;;;;;;;27.7;41.0;101810;;;;
2021/07/09 15:07:57;;;;;;;11.3;10.3;;;;;;;28.2;40.9;101810;;;;
2021/07/09 15:09:57;;;;;;;11.3;10.3;;;;;;;27.9;40.7;101810;;;;
2021/07/09 15:11:57;;;;;;;11.3;10.3;;;;;;;28.3;39.6;101800;;;;
2021/07/09 15:13:58;;;;;;;11.3;10.3;;;;;;;28.2;39.4;101800;;;;
2021/07/09 15:15:57;;;;;;;11.3;10.3;;;;;;;28.4;39.8;101800;;;;
2021/07/09 15:20:00;;;;;;;11.3;10.3;;;;;;;28.8;38.6;101810;;;;
2021/07/09 15:21:57;;;;;;;11.3;10.3;;;;;;;28.6;40.1;101810;;;;
2021/07/09 15:23:57;;;;;;;13.0;11.9;;;;;;;28.5;39.8;101810;;;;
2021/07/09 15:25:57;;;;;;;13.0;11.9;;;;;;;28.0;39.5;101810;;;;
2021/07/09 15:27:57;;;;;;;13.0;11.9;;;;;;;27.9;39.7;101810;;;;
2021/07/09 15:29:57;;;;;;;13.0;11.9;;;;;;;27.7;39.1;101810;;;;
2021/07/09 15:31:57;;;;;;;13.0;11.9;;;;;;;27.9;39.1;101810;;;;
2021/07/09 15:33:57;;;;;;;13.0;11.9;;;;;;;28.0;39.2;101810;;;;
2021/07/09 15:35:57;;;;;;;13.0;11.9;;;;;;;27.8;38.7;101810;;;;
2021/07/09 15:38:07;;;;;;;13.0;11.9;;;;;;;27.6;38.6;101800;;;;
2021/07/09 15:39:57;;;;;;;13.0;11.9;;;;;;;27.9;38.9;101810;;;;
2021/07/09 15:41:57;;;;;;;13.0;11.9;;;;;;;27.8;39.7;101810;;;;
2021/07/09 15:44:00;;;;;;;9.8;8.9;;;;;;;28.3;38.4;101810;;;;
2021/07/09 15:45:57;;;;;;;9.8;8.9;;;;;;;28.8;37.1;101800;;;;
2021/07/09 15:49:59;;;;;;;9.8;8.9;;;;;;;29.0;35.9;101800;;;;
2021/07/09 15:51:57;;;;;;;9.8;8.9;;;;;;;28.8;35.9;101800;;;;
2021/07/09 15:53:57;;;;;;;9.8;8.9;;;;;;;29.2;36.8;101800;;;;
2021/07/09 15:58:07;;;;;;;9.8;8.9;;;;;;;29.5;33.5;101790;;;;
2021/07/09 15:59:57;;;;;;;9.8;8.9;;;;;;;29.4;34.9;101790;;;;
2021/07/09 16:01:58;;;;;;;9.8;8.9;;;;;;;29.2;34.2;101790;;;;
2021/07/09 16:04:01;;;;;;;6.1;5.5;;;;;;;29.5;33.6;101790;;;;
2021/07/09 16:05:57;;;;;;;6.1;5.5;;;;;;;28.9;33.7;101790;;;;
2021/07/09 16:07:57;;;;;;;6.1;5.5;;;;;;;29.4;34.5;101780;;;;
2021/07/09 16:09:57;;;;;;;6.1;5.5;;;;;;;29.0;33.4;101790;;;;
2021/07/09 16:11:57;;;;;;;6.1;5.5;;;;;;;29.4;35.2;101790;;;;
2021/07/09 16:13:57;;;;;;;6.1;5.5;;;;;;;29.2;33.7;101780;;;;
2021/07/09 16:15:58;;;;;;;6.1;5.5;;;;;;;29.5;33.4;101780;;;;
2021/07/09 16:17:57;;;;;;;6.1;5.5;;;;;;;29.9;34.3;101770;;;;
2021/07/09 16:19:58;;;;;;;6.1;5.5;;;;;;;29.4;32.7;101780;;;;
2021/07/09 16:22:01;;;;;;;6.1;5.5;;;;;;;30.1;33.3;101780;;;;
2021/07/09 16:23:57;;;;;;;5.4;4.9;;;;;;;30.4;32.8;101780;;;;
2021/07/09 16:25:57;;;;;;;5.4;4.9;;;;;;;30.5;32.8;101780;;;;
2021/07/09 16:27:57;;;;;;;5.4;4.9;;;;;;;29.7;32.2;101780;;;;
2021/07/09 16:29:57;;;;;;;5.4;4.9;;;;;;;29.8;32.7;101780;;;;
2021/07/09 16:31:57;;;;;;;5.4;4.9;;;;;;;30.3;32.6;101780;;;;
2021/07/09 16:35:57;;;;;;;5.4;4.9;;;;;;;30.4;32.2;101780;;;;
2021/07/09 16:37:57;;;;;;;5.4;4.9;;;;;;;30.5;31.1;101780;;;;
2021/07/09 16:39:57;;;;;;;5.4;4.9;;;;;;;30.3;32.4;101770;;;;
2021/07/09 16:41:58;;;;;;;5.4;4.9;;;;;;;30.0;31.3;101780;;;;
2021/07/09 16:43:57;;;;;;;7.2;6.6;;;;;;;29.8;32.2;101770;;;;
2021/07/09 16:45:57;;;;;;;7.2;6.6;;;;;;;29.9;31.6;101770;;;;
2021/07/09 16:47:57;;;;;;;7.2;6.6;;;;;;;30.1;32.2;101770;;;;
2021/07/09 16:49:57;;;;;;;7.2;6.6;;;;;;;30.2;31.1;101780;;;;
2021/07/09 16:51:57;;;;;;;7.2;6.6;;;;;;;29.6;31.8;101770;;;;
2021/07/09 16:53:57;;;;;;;7.2;6.6;;;;;;;29.2;32.0;101770;;;;
2021/07/09 16:55:57;;;;;;;7.2;6.6;;;;;;;29.4;31.6;101760;;;;
2021/07/09 16:58:02;;;;;;;7.2;6.6;;;;;;;29.9;31.4;101770;;;;
2021/07/09 17:01:58;;;;;;;7.2;6.6;;;;;;;30.3;32.0;101780;;;;
2021/07/09 17:03:57;;;;;;;8.6;7.1;;;;;;;30.1;30.9;101770;;;;
2021/07/09 17:07:57;;;;;;;8.6;7.1;;;;;;;30.2;31.4;101770;;;;
2021/07/09 17:09:57;;;;;;;8.6;7.1;;;;;;;30.4;30.1;101770;;;;
2021/07/09 17:12:00;;;;;;;8.6;7.1;;;;;;;30.3;30.3;101770;;;;
2021/07/09 17:13:57;;;;;;;8.6;7.1;;;;;;;29.9;31.6;101760;;;;
2021/07/09 17:15:57;;;;;;;8.6;7.1;;;;;;;30.3;31.4;101770;;;;
2021/07/09 17:17:57;;;;;;;8.6;7.1;;;;;;;30.4;31.1;101760;;;;
2021/07/09 17:19:57;;;;;;;8.6;7.1;;;;;;;30.5;31.3;101760;;;;
2021/07/09 17:23:57;;;;;;;8.3;7.6;;;;;;;30.7;30.7;101770;;;;
2021/07/09 17:25:57;;;;;;;8.3;7.6;;;;;;;30.6;30.3;101760;;;;
2021/07/09 17:27:57;;;;;;;8.3;7.6;;;;;;;30.1;30.3;101760;;;;
2021/07/09 17:29:57;;;;;;;8.3;7.6;;;;;;;29.9;30.8;101760;;;;
2021/07/09 17:31:58;;;;;;;8.3;7.6;;;;;;;30.0;31.0;101760;;;;
2021/07/09 17:34:04;;;;;;;8.3;7.6;;;;;;;30.4;31.2;101750;;;;
2021/07/09 17:35:57;;;;;;;8.3;7.6;;;;;;;30.2;29.8;101750;;;;